Time,TemperatureF,DewpointF,PressureIn,WindDirection,WindDirectionDegrees,WindSpeedMPH,WindSpeedGustMPH,Humidity,HourlyPrecipIn,Conditions,Clouds,dailyrainin,SoftwareType,DateUTC
2013-04-21 00:01:00,46.4,34.5,30.06,NW,321,7.4,8.7,63,0.00,,---,0.00,VWS V14.01,2013-04-21 04:01:00,
2013-04-21 00:06:00,46.9,33.0,30.06,NW,313,10.1,10.1,58,0.00,,---,0.00,VWS V14.01,2013-04-21 04:06:00,
2013-04-21 00:11:00,47.1,32.7,30.06,WNW,301,8.3,8.3,57,0.00,,---,0.00,VWS V14.01,2013-04-21 04:11:00,
2013-04-21 00:16:00,47.1,32.2,30.06,WNW,302,5.8,8.7,56,0.00,,---,0.00,VWS V14.01,2013-04-21 04:16:00,
2013-04-21 00:21:00,47.3,31.0,30.06,WNW,293,10.1,11.6,53,0.00,,---,0.00,VWS V14.01,2013-04-21 04:21:00,
2013-04-21 00:26:00,47.5,29.8,30.06,NW,310,9.2,9.2,50,0.00,,---,0.00,VWS V14.01,2013-04-21 04:26:00,
2013-04-21 00:31:00,47.5,29.3,30.06,NW,319,11.0,11.6,49,0.00,,---,0.00,VWS V14.01,2013-04-21 04:31:00,
2013-04-21 00:36:00,47.5,28.8,30.06,NW,325,11.0,15.4,48,0.00,,---,0.00,VWS V14.01,2013-04-21 04:36:00,
2013-04-21 00:41:00,47.5,28.3,30.06,NNW,336,9.2,11.0,47,0.00,,---,0.00,VWS V14.01,2013-04-21 04:41:00,
2013-04-21 00:46:00,47.3,28.1,30.06,WNW,291,8.3,11.6,47,0.00,,---,0.00,VWS V14.01,2013-04-21 04:46:00,
2013-04-21 00:51:00,47.1,28.5,30.06,WNW,286,8.3,8.3,48,0.00,,---,0.00,VWS V14.01,2013-04-21 04:51:00,
2013-04-21 00:56:00,46.8,28.6,30.06,WNW,296,10.1,10.1,49,0.00,,---,0.00,VWS V14.01,2013-04-21 04:56:00,
2013-04-21 01:01:00,46.4,29.3,30.09,West,271,7.8,8.7,51,0.00,,---,0.00,VWS V14.01,2013-04-21 05:01:00,
2013-04-21 01:06:00,45.7,29.5,30.09,WNW,296,7.4,7.4,53,0.00,,---,0.00,VWS V14.01,2013-04-21 05:06:00,
2013-04-21 01:11:00,45.3,28.8,30.09,WNW,296,9.2,10.1,52,0.00,,---,0.00,VWS V14.01,2013-04-21 05:11:00,
2013-04-21 01:16:00,45.5,28.0,30.09,WNW,282,9.6,11.6,50,0.00,,---,0.00,VWS V14.01,2013-04-21 05:16:00,
2013-04-21 01:21:00,45.5,26.5,30.09,NW,318,11.2,12.1,47,0.00,,---,0.00,VWS V14.01,2013-04-21 05:21:00,
2013-04-21 01:26:00,45.7,26.6,30.09,WNW,302,8.7,10.1,47,0.00,,---,0.00,VWS V14.01,2013-04-21 05:26:00,
2013-04-21 01:31:00,45.5,26.5,30.09,NW,320,9.2,13.0,47,0.00,,---,0.00,VWS V14.01,2013-04-21 05:31:00,
2013-04-21 01:36:00,45.5,26.5,30.09,WNW,300,6.9,8.7,47,0.00,,---,0.00,VWS V14.01,2013-04-21 05:36:00,
2013-04-21 01:41:00,45.7,26.1,30.09,NW,320,13.9,13.9,46,0.00,,---,0.00,VWS V14.01,2013-04-21 05:41:00,
2013-04-21 01:46:00,45.7,25.6,30.09,West,277,12.1,12.1,45,0.00,,---,0.00,VWS V14.01,2013-04-21 05:46:00,
2013-04-21 01:51:00,45.3,25.8,30.09,WNW,289,11.2,13.0,46,0.00,,---,0.00,VWS V14.01,2013-04-21 05:51:00,
2013-04-21 01:56:00,45.0,26.0,30.09,WNW,299,8.7,13.9,47,0.00,,---,0.00,VWS V14.01,2013-04-21 05:56:00,
2013-04-21 02:01:00,45.1,24.5,30.09,WNW,285,16.3,16.3,44,0.00,,---,0.00,VWS V14.01,2013-04-21 06:01:00,
2013-04-21 02:06:00,45.0,24.4,30.09,NW,307,11.0,11.6,44,0.00,,---,0.00,VWS V14.01,2013-04-21 06:06:00,
2013-04-21 02:11:00,44.8,24.2,30.09,WNW,294,12.5,15.4,44,0.00,,---,0.00,VWS V14.01,2013-04-21 06:11:00,
2013-04-21 02:16:00,44.2,24.3,30.12,NW,310,12.5,14.3,45,0.00,,---,0.00,VWS V14.01,2013-04-21 06:16:00,
2013-04-21 02:21:00,44.1,23.6,30.12,WNW,283,13.9,18.1,44,0.00,,---,0.00,VWS V14.01,2013-04-21 06:21:00,
2013-04-21 02:26:00,43.9,23.4,30.12,NW,308,16.3,19.0,44,0.00,,---,0.00,VWS V14.01,2013-04-21 06:26:00,
2013-04-21 02:31:00,43.7,22.7,30.12,WNW,298,17.7,18.1,43,0.00,,---,0.00,VWS V14.01,2013-04-21 06:31:00,
2013-04-21 02:36:00,43.3,21.8,30.12,WNW,293,13.4,17.2,42,0.00,,---,0.00,VWS V14.01,2013-04-21 06:36:00,
2013-04-21 02:41:00,43.2,21.6,30.12,WNW,302,15.4,17.7,42,0.00,,---,0.00,VWS V14.01,2013-04-21 06:41:00,
2013-04-21 02:45:00,43.0,20.9,30.12,West,281,18.1,20.1,41,0.00,,---,0.00,VWS V14.01,2013-04-21 06:45:00,
2013-04-21 02:50:00,42.8,20.8,30.12,West,280,21.0,23.3,41,0.00,,---,0.00,VWS V14.01,2013-04-21 06:50:00,
2013-04-21 02:55:00,42.6,20.6,30.12,WNW,291,14.8,20.6,41,0.00,,---,0.00,VWS V14.01,2013-04-21 06:55:00,
2013-04-21 03:00:00,42.3,20.3,30.15,West,277,14.3,17.2,41,0.00,,---,0.00,VWS V14.01,2013-04-21 07:00:00,
2013-04-21 03:05:00,42.1,20.1,30.15,West,273,13.0,15.2,41,0.00,,---,0.00,VWS V14.01,2013-04-21 07:05:00,
2013-04-21 03:10:00,41.7,20.3,30.15,West,278,11.6,14.3,42,0.00,,---,0.00,VWS V14.01,2013-04-21 07:10:00,
2013-04-21 03:15:00,41.5,20.2,30.15,West,270,8.7,13.0,42,0.00,,---,0.00,VWS V14.01,2013-04-21 07:15:00,
2013-04-21 03:20:00,41.5,20.2,30.15,WNW,299,10.5,11.6,42,0.00,,---,0.00,VWS V14.01,2013-04-21 07:20:00,
2013-04-21 03:25:00,41.5,20.2,30.15,WNW,293,12.1,16.3,42,0.00,,---,0.00,VWS V14.01,2013-04-21 07:25:00,
2013-04-21 03:30:00,41.4,20.0,30.15,West,269,10.1,10.1,42,0.00,,---,0.00,VWS V14.01,2013-04-21 07:30:00,
2013-04-21 03:35:00,41.2,19.3,30.15,WNW,293,14.3,17.7,41,0.00,,---,0.00,VWS V14.01,2013-04-21 07:35:00,
2013-04-21 03:40:00,40.8,19.5,30.15,NW,320,11.2,13.0,42,0.00,,---,0.00,VWS V14.01,2013-04-21 07:40:00,
2013-04-21 03:45:00,40.5,19.2,30.15,WNW,301,11.6,13.4,42,0.00,,---,0.00,VWS V14.01,2013-04-21 07:45:00,
2013-04-21 03:50:00,40.1,18.9,30.15,WNW,287,8.3,9.6,42,0.00,,---,0.00,VWS V14.01,2013-04-21 07:50:00,
2013-04-21 03:55:00,39.7,19.1,30.15,NW,317,8.7,10.1,43,0.00,,---,0.00,VWS V14.01,2013-04-21 07:55:00,
2013-04-21 04:00:00,39.4,19.3,30.18,West,276,8.3,12.5,44,0.00,,---,0.00,VWS V14.01,2013-04-21 08:00:00,
2013-04-21 04:05:00,39.4,19.3,30.18,WNW,293,6.9,12.5,44,0.00,,---,0.00,VWS V14.01,2013-04-21 08:05:00,
2013-04-21 04:10:00,39.4,19.3,30.18,WNW,282,8.7,8.7,44,0.00,,---,0.00,VWS V14.01,2013-04-21 08:10:00,
2013-04-21 04:15:00,39.2,19.7,30.18,West,277,8.7,12.5,45,0.00,,---,0.00,VWS V14.01,2013-04-21 08:15:00,
2013-04-21 04:20:00,39.2,19.7,30.18,WNW,289,9.2,10.1,45,0.00,,---,0.00,VWS V14.01,2013-04-21 08:20:00,
2013-04-21 04:25:00,39.0,19.5,30.18,West,281,9.6,12.5,45,0.00,,---,0.00,VWS V14.01,2013-04-21 08:25:00,
2013-04-21 04:30:00,38.7,19.2,30.18,West,267,11.2,13.0,45,0.00,,---,0.00,VWS V14.01,2013-04-21 08:30:00,
2013-04-21 04:35:00,38.7,19.7,30.18,West,267,9.6,11.2,46,0.00,,---,0.00,VWS V14.01,2013-04-21 08:35:00,
2013-04-21 04:40:00,38.5,19.5,30.18,WNW,297,10.1,10.1,46,0.00,,---,0.00,VWS V14.01,2013-04-21 08:40:00,
2013-04-21 04:45:00,38.3,19.9,30.21,WNW,282,6.9,9.6,47,0.00,,---,0.00,VWS V14.01,2013-04-21 08:45:00,
2013-04-21 04:50:00,38.1,20.2,30.21,West,272,6.3,7.8,48,0.00,,---,0.00,VWS V14.01,2013-04-21 08:50:00,
2013-04-21 04:55:00,37.9,20.0,30.21,WNW,295,9.2,10.5,48,0.00,,---,0.00,VWS V14.01,2013-04-21 08:55:00,
2013-04-21 05:00:00,37.9,20.5,30.21,West,277,7.8,9.6,49,0.00,,---,0.00,VWS V14.01,2013-04-21 09:00:00,
2013-04-21 05:05:00,37.9,20.5,30.21,WNW,282,11.2,11.2,49,0.00,,---,0.00,VWS V14.01,2013-04-21 09:05:00,
2013-04-21 05:10:00,37.9,20.5,30.21,WNW,293,11.2,11.6,49,0.00,,---,0.00,VWS V14.01,2013-04-21 09:10:00,
2013-04-21 05:15:00,38.3,20.8,30.21,NW,305,7.8,14.3,49,0.00,,---,0.00,VWS V14.01,2013-04-21 09:15:00,
2013-04-21 05:20:00,38.7,19.2,30.21,WNW,301,10.5,12.1,45,0.00,,---,0.00,VWS V14.01,2013-04-21 09:20:00,
2013-04-21 05:25:00,38.3,19.4,30.21,WNW,291,5.8,7.8,46,0.00,,---,0.00,VWS V14.01,2013-04-21 09:25:00,
2013-04-21 05:30:00,38.7,19.2,30.21,WNW,283,11.2,19.5,45,0.00,,---,0.00,VWS V14.01,2013-04-21 09:30:00,
2013-04-21 05:35:00,38.7,18.6,30.21,NNW,347,11.6,11.6,44,0.00,,---,0.00,VWS V14.01,2013-04-21 09:35:00,
2013-04-21 05:40:00,38.7,18.1,30.21,WNW,291,13.4,16.8,43,0.00,,---,0.00,VWS V14.01,2013-04-21 09:40:00,
2013-04-21 05:45:00,38.7,18.1,30.24,WNW,292,15.2,17.7,43,0.00,,---,0.00,VWS V14.01,2013-04-21 09:45:00,
2013-04-21 05:50:00,38.5,17.9,30.24,NW,307,11.6,13.9,43,0.00,,---,0.00,VWS V14.01,2013-04-21 09:50:00,
2013-04-21 05:55:00,38.7,18.1,30.24,WNW,296,11.2,11.2,43,0.00,,---,0.00,VWS V14.01,2013-04-21 09:55:00,
2013-04-21 06:00:00,38.7,18.1,30.24,NW,322,9.2,13.0,43,0.00,,---,0.00,VWS V14.01,2013-04-21 10:00:00,
2013-04-21 06:05:00,38.7,18.1,30.24,NW,305,10.1,18.1,43,0.00,,---,0.00,VWS V14.01,2013-04-21 10:05:00,
2013-04-21 06:10:00,38.7,18.6,30.24,NW,307,9.6,11.0,44,0.00,,---,0.00,VWS V14.01,2013-04-21 10:10:00,
2013-04-21 06:15:00,38.5,19.0,30.24,West,266,9.2,14.3,45,0.00,,---,0.00,VWS V14.01,2013-04-21 10:15:00,
2013-04-21 06:20:00,38.8,19.3,30.24,West,268,7.4,10.1,45,0.00,,---,0.00,VWS V14.01,2013-04-21 10:20:00,
2013-04-21 06:25:00,38.7,19.7,30.24,WNW,290,10.1,12.5,46,0.00,,---,0.00,VWS V14.01,2013-04-21 10:25:00,
2013-04-21 06:30:00,39.2,19.7,30.24,West,281,10.1,10.5,45,0.00,,---,0.00,VWS V14.01,2013-04-21 10:30:00,
2013-04-21 06:35:00,39.7,19.6,30.24,WNW,292,8.7,10.1,44,0.00,,---,0.00,VWS V14.01,2013-04-21 10:35:00,
2013-04-21 06:40:00,39.7,19.6,30.24,WNW,286,14.3,16.8,44,0.00,,---,0.00,VWS V14.01,2013-04-21 10:40:00,
2013-04-21 06:45:00,40.3,20.1,30.27,West,268,10.1,10.1,44,0.00,,---,0.00,VWS V14.01,2013-04-21 10:45:00,
2013-04-21 06:50:00,40.5,19.7,30.27,WNW,303,6.7,9.6,43,0.00,,---,0.00,VWS V14.01,2013-04-21 10:50:00,
2013-04-21 06:55:00,40.5,19.7,30.27,West,273,8.7,11.6,43,0.00,,---,0.00,VWS V14.01,2013-04-21 10:55:00,
2013-04-21 07:00:00,40.6,19.4,30.27,WNW,289,10.5,11.0,42,0.00,,---,0.00,VWS V14.01,2013-04-21 11:00:00,
2013-04-21 07:05:00,41.0,19.7,30.27,West,259,7.4,8.3,42,0.00,,---,0.00,VWS V14.01,2013-04-21 11:05:00,
2013-04-21 07:10:00,41.2,19.9,30.27,NW,305,7.4,10.1,42,0.00,,---,0.00,VWS V14.01,2013-04-21 11:10:00,
2013-04-21 07:15:00,41.0,19.7,30.30,West,278,6.9,7.8,42,0.00,,---,0.00,VWS V14.01,2013-04-21 11:15:00,
2013-04-21 07:20:00,41.2,19.9,30.30,WNW,291,6.9,9.2,42,0.00,,---,0.00,VWS V14.01,2013-04-21 11:20:00,
2013-04-21 07:25:00,40.8,19.5,30.30,WNW,286,11.2,11.2,42,0.00,,---,0.00,VWS V14.01,2013-04-21 11:25:00,
2013-04-21 07:30:00,40.6,19.4,30.30,WNW,283,10.1,13.0,42,0.00,,---,0.00,VWS V14.01,2013-04-21 11:30:00,
2013-04-21 07:35:00,41.0,19.7,30.30,WNW,298,12.5,12.5,42,0.00,,---,0.00,VWS V14.01,2013-04-21 11:35:00,
2013-04-21 07:40:00,41.2,19.9,30.30,WNW,282,9.6,10.1,42,0.00,,---,0.00,VWS V14.01,2013-04-21 11:40:00,
2013-04-21 07:45:00,41.2,19.9,30.30,West,278,10.5,11.6,42,0.00,,---,0.00,VWS V14.01,2013-04-21 11:45:00,
2013-04-21 07:50:00,41.0,19.7,30.30,WNW,299,12.1,13.0,42,0.00,,---,0.00,VWS V14.01,2013-04-21 11:50:00,
2013-04-21 07:55:00,40.8,19.5,30.30,West,275,11.0,11.2,42,0.00,,---,0.00,VWS V14.01,2013-04-21 11:55:00,
2013-04-21 08:00:00,41.0,20.2,30.30,WNW,302,11.2,13.4,43,0.00,,---,0.00,VWS V14.01,2013-04-21 12:00:00,
2013-04-21 08:05:00,41.2,20.4,30.30,WNW,299,13.4,13.4,43,0.00,,---,0.00,VWS V14.01,2013-04-21 12:05:00,
2013-04-21 08:10:00,41.7,20.9,30.30,WNW,290,10.5,10.5,43,0.00,,---,0.00,VWS V14.01,2013-04-21 12:10:00,
2013-04-21 08:15:00,41.4,20.0,30.30,NNW,340,10.1,12.5,42,0.00,,---,0.00,VWS V14.01,2013-04-21 12:15:00,
2013-04-21 08:20:00,41.4,19.5,30.30,WNW,289,13.0,16.8,41,0.00,,---,0.00,VWS V14.01,2013-04-21 12:20:00,
2013-04-21 08:25:00,41.7,20.3,30.30,NW,320,9.2,11.6,42,0.00,,---,0.00,VWS V14.01,2013-04-21 12:25:00,
2013-04-21 08:30:00,41.7,20.3,30.33,WNW,297,17.2,17.2,42,0.00,,---,0.00,VWS V14.01,2013-04-21 12:30:00,
2013-04-21 08:35:00,41.5,19.6,30.33,WNW,299,13.4,16.8,41,0.00,,---,0.00,VWS V14.01,2013-04-21 12:35:00,
2013-04-21 08:40:00,41.2,19.3,30.33,WNW,293,16.8,20.1,41,0.00,,---,0.00,VWS V14.01,2013-04-21 12:40:00,
2013-04-21 08:44:00,41.7,20.3,30.33,NW,322,15.2,18.1,42,0.00,,---,0.00,VWS V14.01,2013-04-21 12:44:00,
2013-04-21 08:49:00,42.3,20.3,30.33,WNW,295,19.0,20.1,41,0.00,,---,0.00,VWS V14.01,2013-04-21 12:49:00,
2013-04-21 08:54:00,42.1,20.7,30.33,WNW,302,14.3,18.6,42,0.00,,---,0.00,VWS V14.01,2013-04-21 12:54:00,
2013-04-21 08:59:00,41.5,20.2,30.33,NNW,332,11.6,22.4,42,0.00,,---,0.00,VWS V14.01,2013-04-21 12:59:00,
2013-04-21 09:04:00,41.7,20.3,30.33,NW,307,10.5,16.3,42,0.00,,---,0.00,VWS V14.01,2013-04-21 13:04:00,
2013-04-21 09:09:00,42.3,20.8,30.33,NNW,329,17.7,19.9,42,0.00,,---,0.00,VWS V14.01,2013-04-21 13:09:00,
2013-04-21 09:14:00,41.7,20.3,30.33,West,269,6.9,15.4,42,0.00,,---,0.00,VWS V14.01,2013-04-21 13:14:00,
2013-04-21 09:19:00,42.1,20.7,30.33,NW,323,15.4,16.8,42,0.00,,---,0.00,VWS V14.01,2013-04-21 13:19:00,
2013-04-21 09:24:00,41.5,20.2,30.33,NW,313,13.4,16.8,42,0.00,,---,0.00,VWS V14.01,2013-04-21 13:24:00,
2013-04-21 09:29:00,41.7,20.3,30.33,NW,313,15.4,17.7,42,0.00,,---,0.00,VWS V14.01,2013-04-21 13:29:00,
2013-04-21 09:34:00,42.3,20.8,30.33,West,280,15.4,19.9,42,0.00,,---,0.00,VWS V14.01,2013-04-21 13:34:00,
2013-04-21 09:39:00,41.5,20.2,30.33,NW,326,20.1,24.4,42,0.00,,---,0.00,VWS V14.01,2013-04-21 13:39:00,
2013-04-21 09:44:00,42.3,20.8,30.33,NW,322,12.5,14.8,42,0.00,,---,0.00,VWS V14.01,2013-04-21 13:44:00,
2013-04-21 09:49:00,42.6,21.1,30.33,WNW,296,15.2,19.0,42,0.00,,---,0.00,VWS V14.01,2013-04-21 13:49:00,
2013-04-21 09:54:00,41.7,20.3,30.33,NNW,337,17.7,23.7,42,0.00,,---,0.00,VWS V14.01,2013-04-21 13:54:00,
2013-04-21 09:59:00,41.7,20.9,30.36,NNW,340,15.2,18.6,43,0.00,,---,0.00,VWS V14.01,2013-04-21 13:59:00,
2013-04-21 10:04:00,42.1,20.7,30.36,NNW,337,14.3,19.0,42,0.00,,---,0.00,VWS V14.01,2013-04-21 14:04:00,
2013-04-21 10:09:00,42.1,20.7,30.36,NW,321,12.5,16.3,42,0.00,,---,0.00,VWS V14.01,2013-04-21 14:09:00,
2013-04-21 10:14:00,43.0,21.5,30.36,WNW,297,5.8,16.3,42,0.00,,---,0.00,VWS V14.01,2013-04-21 14:14:00,
2013-04-21 10:19:00,42.3,20.3,30.36,WNW,289,14.3,19.0,41,0.00,,---,0.00,VWS V14.01,2013-04-21 14:19:00,
2013-04-21 10:24:00,42.8,21.3,30.36,NW,310,16.3,18.1,42,0.00,,---,0.00,VWS V14.01,2013-04-21 14:24:00,
2013-04-21 10:29:00,41.9,19.9,30.36,NNW,331,17.2,18.6,41,0.00,,---,0.00,VWS V14.01,2013-04-21 14:29:00,
2013-04-21 10:34:00,42.6,20.6,30.36,NNW,337,13.9,15.2,41,0.00,,---,0.00,VWS V14.01,2013-04-21 14:34:00,
2013-04-21 10:39:00,42.3,20.3,30.36,WSW,242,9.2,16.8,41,0.00,,---,0.00,VWS V14.01,2013-04-21 14:39:00,
2013-04-21 10:44:00,42.3,20.3,30.36,WNW,287,9.6,21.0,41,0.00,,---,0.00,VWS V14.01,2013-04-21 14:44:00,
2013-04-21 10:49:00,43.7,21.0,30.36,NW,321,11.0,17.7,40,0.00,,---,0.00,VWS V14.01,2013-04-21 14:49:00,
2013-04-21 10:54:00,42.8,20.2,30.36,WNW,285,15.2,17.2,40,0.00,,---,0.00,VWS V14.01,2013-04-21 14:54:00,
2013-04-21 10:59:00,43.0,20.9,30.39,NW,304,20.1,20.1,41,0.00,,---,0.00,VWS V14.01,2013-04-21 14:59:00,
2013-04-21 11:04:00,43.9,21.7,30.39,WSW,246,11.6,19.0,41,0.00,,---,0.00,VWS V14.01,2013-04-21 15:04:00,
2013-04-21 11:09:00,41.7,19.8,30.39,WNW,301,14.8,15.9,41,0.00,,---,0.00,VWS V14.01,2013-04-21 15:09:00,
2013-04-21 11:14:00,42.3,20.3,30.39,NNW,338,16.3,20.1,41,0.00,,---,0.00,VWS V14.01,2013-04-21 15:14:00,
2013-04-21 11:19:00,43.5,22.0,30.39,North,8,18.1,18.1,42,0.00,,---,0.00,VWS V14.01,2013-04-21 15:19:00,
2013-04-21 11:24:00,41.9,19.9,30.39,NW,325,21.5,21.9,41,0.00,,---,0.00,VWS V14.01,2013-04-21 15:24:00,
2013-04-21 11:29:00,41.9,19.9,30.39,NW,305,15.2,19.5,41,0.00,,---,0.00,VWS V14.01,2013-04-21 15:29:00,
2013-04-21 11:34:00,43.7,21.6,30.39,NW,313,11.2,14.8,41,0.00,,---,0.00,VWS V14.01,2013-04-21 15:34:00,
2013-04-21 11:39:00,43.5,20.8,30.39,NW,315,18.1,18.1,40,0.00,,---,0.00,VWS V14.01,2013-04-21 15:39:00,
2013-04-21 11:44:00,43.5,21.4,30.39,WNW,296,11.6,14.8,41,0.00,,---,0.00,VWS V14.01,2013-04-21 15:44:00,
2013-04-21 11:49:00,43.3,20.6,30.39,North,0,17.2,19.9,40,0.00,,---,0.00,VWS V14.01,2013-04-21 15:49:00,
2013-04-21 11:54:00,42.4,19.8,30.39,NNW,331,21.5,21.5,40,0.00,,---,0.00,VWS V14.01,2013-04-21 15:54:00,
2013-04-21 11:59:00,43.2,20.5,30.39,NNW,334,22.8,22.8,40,0.00,,---,0.00,VWS V14.01,2013-04-21 15:59:00,
2013-04-21 12:04:00,42.6,20.0,30.39,WSW,253,13.4,15.9,40,0.00,,---,0.00,VWS V14.01,2013-04-21 16:04:00,
2013-04-21 12:09:00,43.0,20.3,30.39,NNW,343,13.0,18.6,40,0.00,,---,0.00,VWS V14.01,2013-04-21 16:09:00,
2013-04-21 12:14:00,43.0,20.3,30.39,North,351,18.1,18.1,40,0.00,,---,0.00,VWS V14.01,2013-04-21 16:14:00,
2013-04-21 12:19:00,43.7,21.0,30.39,West,281,17.7,17.7,40,0.00,,---,0.00,VWS V14.01,2013-04-21 16:19:00,
2013-04-21 12:24:00,43.2,20.5,30.39,NW,322,9.6,11.6,40,0.00,,---,0.00,VWS V14.01,2013-04-21 16:24:00,
2013-04-21 12:29:00,43.7,21.6,30.39,WNW,289,15.4,16.8,41,0.00,,---,0.00,VWS V14.01,2013-04-21 16:29:00,
2013-04-21 12:34:00,44.2,21.5,30.39,West,268,7.8,11.2,40,0.00,,---,0.00,VWS V14.01,2013-04-21 16:34:00,
2013-04-21 12:39:00,43.9,21.1,30.39,NNW,345,14.3,19.5,40,0.00,,---,0.00,VWS V14.01,2013-04-21 16:39:00,
2013-04-21 12:44:00,42.6,20.6,30.39,NNW,329,17.2,17.2,41,0.00,,---,0.00,VWS V14.01,2013-04-21 16:44:00,
2013-04-21 12:49:00,43.7,21.0,30.39,NNW,336,13.4,15.9,40,0.00,,---,0.00,VWS V14.01,2013-04-21 16:49:00,
2013-04-21 12:54:00,44.1,21.3,30.39,NNW,340,13.4,16.3,40,0.00,,---,0.00,VWS V14.01,2013-04-21 16:54:00,
2013-04-21 12:59:00,43.3,21.2,30.39,NNW,345,12.5,15.9,41,0.00,,---,0.00,VWS V14.01,2013-04-21 16:59:00,
2013-04-21 13:04:00,44.1,21.9,30.39,NNE,19,10.1,13.4,41,0.00,,---,0.00,VWS V14.01,2013-04-21 17:04:00,
2013-04-21 13:09:00,44.1,21.3,30.39,North,356,13.0,15.2,40,0.00,,---,0.00,VWS V14.01,2013-04-21 17:09:00,
2013-04-21 13:14:00,43.3,21.2,30.39,NNW,332,14.3,18.1,41,0.00,,---,0.00,VWS V14.01,2013-04-21 17:14:00,
2013-04-21 13:19:00,43.7,21.6,30.39,NNW,329,18.6,18.6,41,0.00,,---,0.00,VWS V14.01,2013-04-21 17:19:00,
2013-04-21 13:24:00,43.3,21.2,30.39,North,3,15.2,15.2,41,0.00,,---,0.00,VWS V14.01,2013-04-21 17:24:00,
2013-04-21 13:29:00,43.5,21.4,30.39,North,3,10.1,12.5,41,0.00,,---,0.00,VWS V14.01,2013-04-21 17:29:00,
2013-04-21 13:34:00,44.4,22.2,30.39,North,5,11.2,11.2,41,0.00,,---,0.00,VWS V14.01,2013-04-21 17:34:00,
2013-04-21 13:39:00,44.1,21.3,30.39,North,7,11.6,11.6,40,0.00,,---,0.00,VWS V14.01,2013-04-21 17:39:00,
2013-04-21 13:44:00,44.4,21.6,30.39,ESE,109,13.4,15.2,40,0.00,,---,0.00,VWS V14.01,2013-04-21 17:44:00,
2013-04-21 13:49:00,44.2,22.0,30.39,North,0,14.8,15.9,41,0.00,,---,0.00,VWS V14.01,2013-04-21 17:49:00,
2013-04-21 13:54:00,44.2,21.5,30.39,North,8,17.2,19.0,40,0.00,,---,0.00,VWS V14.01,2013-04-21 17:54:00,
2013-04-21 13:59:00,44.8,22.5,30.42,NNW,331,9.2,11.2,41,0.00,,---,0.00,VWS V14.01,2013-04-21 17:59:00,
2013-04-21 14:04:00,43.3,20.6,30.42,NNW,333,16.3,17.2,40,0.00,,---,0.00,VWS V14.01,2013-04-21 18:04:00,
2013-04-21 14:09:00,44.8,22.0,30.42,North,8,15.2,15.2,40,0.00,,---,0.00,VWS V14.01,2013-04-21 18:09:00,
2013-04-21 14:14:00,44.6,21.8,30.39,NNE,17,17.2,17.7,40,0.00,,---,0.00,VWS V14.01,2013-04-21 18:14:00,
2013-04-21 14:19:00,44.8,22.0,30.39,NNE,13,18.1,19.0,40,0.00,,---,0.00,VWS V14.01,2013-04-21 18:19:00,
2013-04-21 14:24:00,44.8,22.0,30.39,North,2,11.6,15.9,40,0.00,,---,0.00,VWS V14.01,2013-04-21 18:24:00,
2013-04-21 14:29:00,44.6,21.2,30.39,North,351,10.5,21.0,39,0.00,,---,0.00,VWS V14.01,2013-04-21 18:29:00,
2013-04-21 14:34:00,45.9,22.3,30.39,North,0,12.5,14.3,39,0.00,,---,0.00,VWS V14.01,2013-04-21 18:34:00,
2013-04-21 14:39:00,46.2,22.6,30.39,North,356,12.1,15.2,39,0.00,,---,0.00,VWS V14.01,2013-04-21 18:39:00,
2013-04-21 14:43:00,45.1,21.7,30.42,North,1,11.0,13.9,39,0.00,,---,0.00,VWS V14.01,2013-04-21 18:43:00,
2013-04-21 14:48:00,45.1,21.7,30.42,NNE,18,15.4,17.2,39,0.00,,---,0.00,VWS V14.01,2013-04-21 18:48:00,
2013-04-21 14:53:00,45.9,21.7,30.42,North,0,14.8,17.7,38,0.00,,---,0.00,VWS V14.01,2013-04-21 18:53:00,
2013-04-21 14:58:00,45.1,21.7,30.39,NNE,21,16.3,20.6,39,0.00,,---,0.00,VWS V14.01,2013-04-21 18:58:00,
2013-04-21 15:03:00,44.8,21.4,30.39,NW,322,12.1,12.1,39,0.00,,---,0.00,VWS V14.01,2013-04-21 19:03:00,
2013-04-21 15:08:00,45.7,22.2,30.39,NNE,22,15.2,15.4,39,0.00,,---,0.00,VWS V14.01,2013-04-21 19:08:00,
2013-04-21 15:13:00,45.3,21.8,30.39,North,2,14.8,15.9,39,0.00,,---,0.00,VWS V14.01,2013-04-21 19:13:00,
2013-04-21 15:18:00,45.5,22.6,30.39,NNE,13,13.9,15.9,40,0.00,,---,0.00,VWS V14.01,2013-04-21 19:18:00,
2013-04-21 15:23:00,45.3,22.4,30.39,North,10,15.2,15.2,40,0.00,,---,0.00,VWS V14.01,2013-04-21 19:23:00,
2013-04-21 15:28:00,45.1,22.3,30.42,NNW,341,12.5,13.9,40,0.00,,---,0.00,VWS V14.01,2013-04-21 19:28:00,
2013-04-21 15:33:00,45.1,22.3,30.42,North,351,11.0,11.6,40,0.00,,---,0.00,VWS V14.01,2013-04-21 19:33:00,
2013-04-21 15:38:00,45.1,22.3,30.42,NNE,17,13.0,18.1,40,0.00,,---,0.00,VWS V14.01,2013-04-21 19:38:00,
2013-04-21 15:43:00,45.5,22.0,30.42,North,7,11.6,14.3,39,0.00,,---,0.00,VWS V14.01,2013-04-21 19:43:00,
2013-04-21 15:48:00,45.9,22.3,30.42,North,0,8.7,14.8,39,0.00,,---,0.00,VWS V14.01,2013-04-21 19:48:00,
2013-04-21 15:53:00,45.9,22.3,30.42,NW,322,10.1,14.8,39,0.00,,---,0.00,VWS V14.01,2013-04-21 19:53:00,
2013-04-21 15:58:00,45.1,21.7,30.42,NNW,332,10.5,12.1,39,0.00,,---,0.00,VWS V14.01,2013-04-21 19:58:00,
2013-04-21 16:03:00,45.3,21.8,30.42,NNE,17,13.4,19.0,39,0.00,,---,0.00,VWS V14.01,2013-04-21 20:03:00,
2013-04-21 16:08:00,45.5,22.0,30.42,North,2,14.8,14.8,39,0.00,,---,0.00,VWS V14.01,2013-04-21 20:08:00,
2013-04-21 16:13:00,45.7,22.2,30.42,NNE,31,9.6,11.6,39,0.00,,---,0.00,VWS V14.01,2013-04-21 20:13:00,
2013-04-21 16:18:00,46.4,22.8,30.42,NNE,19,11.0,11.0,39,0.00,,---,0.00,VWS V14.01,2013-04-21 20:18:00,
2013-04-21 16:23:00,46.4,22.2,30.42,NNW,331,10.1,12.1,38,0.00,,---,0.00,VWS V14.01,2013-04-21 20:23:00,
2013-04-21 16:28:00,46.4,22.8,30.42,NE,35,10.1,13.9,39,0.00,,---,0.00,VWS V14.01,2013-04-21 20:28:00,
2013-04-21 16:33:00,46.0,21.9,30.42,WNW,293,10.1,12.1,38,0.00,,---,0.00,VWS V14.01,2013-04-21 20:33:00,
2013-04-21 16:38:00,45.7,21.5,30.42,NNE,14,11.0,14.8,38,0.00,,---,0.00,VWS V14.01,2013-04-21 20:38:00,
2013-04-21 16:43:00,46.0,21.9,30.42,North,4,11.0,12.1,38,0.00,,---,0.00,VWS V14.01,2013-04-21 20:43:00,
2013-04-21 16:48:00,46.8,22.5,30.42,NNW,331,12.5,14.3,38,0.00,,---,0.00,VWS V14.01,2013-04-21 20:48:00,
2013-04-21 16:53:00,46.0,21.9,30.42,North,3,11.6,12.5,38,0.00,,---,0.00,VWS V14.01,2013-04-21 20:53:00,
2013-04-21 16:58:00,46.2,22.0,30.42,North,7,13.9,14.3,38,0.00,,---,0.00,VWS V14.01,2013-04-21 20:58:00,
2013-04-21 17:03:00,46.0,21.9,30.42,North,0,9.6,17.7,38,0.00,,---,0.00,VWS V14.01,2013-04-21 21:03:00,
2013-04-21 17:08:00,46.2,22.0,30.42,North,6,12.5,14.8,38,0.00,,---,0.00,VWS V14.01,2013-04-21 21:08:00,
2013-04-21 17:13:00,45.9,21.7,30.42,North,8,13.9,17.2,38,0.00,,---,0.00,VWS V14.01,2013-04-21 21:13:00,
2013-04-21 17:18:00,46.4,22.2,30.42,NNE,16,17.2,17.2,38,0.00,,---,0.00,VWS V14.01,2013-04-21 21:18:00,
2013-04-21 17:23:00,46.0,21.9,30.42,NNW,345,12.1,15.2,38,0.00,,---,0.00,VWS V14.01,2013-04-21 21:23:00,
2013-04-21 17:28:00,46.0,21.9,30.42,NNE,13,14.8,17.7,38,0.00,,---,0.00,VWS V14.01,2013-04-21 21:28:00,
2013-04-21 17:33:00,46.0,21.9,30.42,North,3,12.1,15.2,38,0.00,,---,0.00,VWS V14.01,2013-04-21 21:33:00,
2013-04-21 17:38:00,46.2,22.0,30.42,NW,325,13.9,15.9,38,0.00,,---,0.00,VWS V14.01,2013-04-21 21:38:00,
2013-04-21 17:43:00,46.0,21.9,30.42,NNE,23,11.2,13.4,38,0.00,,---,0.00,VWS V14.01,2013-04-21 21:43:00,
2013-04-21 17:48:00,46.0,22.5,30.42,NE,42,12.1,12.1,39,0.00,,---,0.00,VWS V14.01,2013-04-21 21:48:00,
2013-04-21 17:53:00,46.2,22.6,30.42,North,7,13.9,15.4,39,0.00,,---,0.00,VWS V14.01,2013-04-21 21:53:00,
2013-04-21 17:58:00,45.5,22.0,30.42,NNE,19,13.9,13.9,39,0.00,,---,0.00,VWS V14.01,2013-04-21 21:58:00,
2013-04-21 18:03:00,45.3,21.8,30.42,NE,42,12.5,13.4,39,0.00,,---,0.00,VWS V14.01,2013-04-21 22:03:00,
2013-04-21 18:08:00,45.7,22.2,30.42,NE,35,10.5,13.9,39,0.00,,---,0.00,VWS V14.01,2013-04-21 22:08:00,
2013-04-21 18:13:00,45.3,21.8,30.42,North,10,13.0,13.0,39,0.00,,---,0.00,VWS V14.01,2013-04-21 22:13:00,
2013-04-21 18:18:00,45.0,21.5,30.42,NNE,27,11.6,13.9,39,0.00,,---,0.00,VWS V14.01,2013-04-21 22:18:00,
2013-04-21 18:23:00,45.1,21.7,30.42,NNE,13,13.4,13.4,39,0.00,,---,0.00,VWS V14.01,2013-04-21 22:23:00,
2013-04-21 18:28:00,45.1,21.7,30.42,ENE,73,8.3,11.6,39,0.00,,---,0.00,VWS V14.01,2013-04-21 22:28:00,
2013-04-21 18:33:00,45.0,21.5,30.42,NNE,13,12.5,12.5,39,0.00,,---,0.00,VWS V14.01,2013-04-21 22:33:00,
2013-04-21 18:38:00,44.6,21.8,30.42,NNE,28,9.2,10.1,40,0.00,,---,0.00,VWS V14.01,2013-04-21 22:38:00,
2013-04-21 18:43:00,46.8,23.1,30.42,ENE,66,10.1,12.5,39,0.00,,---,0.00,VWS V14.01,2013-04-21 22:43:00,
2013-04-21 18:48:00,47.3,23.0,30.45,NE,34,6.9,7.8,38,0.00,,---,0.00,VWS V14.01,2013-04-21 22:48:00,
2013-04-21 18:53:00,48.0,23.6,30.45,NNE,33,8.7,9.2,38,0.00,,---,0.00,VWS V14.01,2013-04-21 22:53:00,
2013-04-21 18:58:00,47.7,23.3,30.45,ENE,60,7.8,8.3,38,0.00,,---,0.00,VWS V14.01,2013-04-21 22:58:00,
2013-04-21 19:03:00,46.6,23.0,30.45,NNE,32,7.4,8.3,39,0.00,,---,0.00,VWS V14.01,2013-04-21 23:03:00,
2013-04-21 19:08:00,46.4,22.8,30.45,NNE,15,8.3,8.3,39,0.00,,---,0.00,VWS V14.01,2013-04-21 23:08:00,
2013-04-21 19:13:00,45.5,22.0,30.45,NNE,13,9.6,9.6,39,0.00,,---,0.00,VWS V14.01,2013-04-21 23:13:00,
2013-04-21 19:18:00,43.0,20.3,30.45,NNE,14,13.0,13.0,40,0.00,,---,0.00,VWS V14.01,2013-04-21 23:18:00,
2013-04-21 19:23:00,42.6,20.0,30.45,NE,36,8.7,8.7,40,0.00,,---,0.00,VWS V14.01,2013-04-21 23:23:00,
2013-04-21 19:28:00,42.1,20.1,30.45,ENE,58,7.8,9.2,41,0.00,,---,0.00,VWS V14.01,2013-04-21 23:28:00,
2013-04-21 19:33:00,41.5,20.2,30.45,NE,44,5.8,6.3,42,0.00,,---,0.00,VWS V14.01,2013-04-21 23:33:00,
2013-04-21 19:38:00,41.0,20.2,30.45,NNE,29,9.6,10.5,43,0.00,,---,0.00,VWS V14.01,2013-04-21 23:38:00,
2013-04-21 19:43:00,40.8,20.6,30.45,NE,48,7.8,7.8,44,0.00,,---,0.00,VWS V14.01,2013-04-21 23:43:00,
2013-04-21 19:48:00,40.5,20.8,30.45,NE,55,7.4,7.4,45,0.00,,---,0.00,VWS V14.01,2013-04-21 23:48:00,
2013-04-21 19:53:00,40.6,21.5,30.45,ENE,59,6.7,7.4,46,0.00,,---,0.00,VWS V14.01,2013-04-21 23:53:00,
2013-04-21 19:58:00,40.3,21.7,30.45,NE,41,6.7,6.9,47,0.00,,---,0.00,VWS V14.01,2013-04-21 23:58:00,
2013-04-21 20:03:00,40.3,22.2,30.47,ENE,77,7.8,7.8,48,0.00,,---,0.00,VWS V14.01,2013-04-22 00:03:00,
2013-04-21 20:08:00,39.9,22.3,30.47,NNE,28,6.9,6.9,49,0.00,,---,0.00,VWS V14.01,2013-04-22 00:08:00,
2013-04-21 20:13:00,39.4,21.8,30.47,ENE,59,5.4,6.7,49,0.00,,---,0.00,VWS V14.01,2013-04-22 00:13:00,
2013-04-21 20:18:00,39.6,22.0,30.47,NE,53,6.7,6.9,49,0.00,,---,0.00,VWS V14.01,2013-04-22 00:18:00,
2013-04-21 20:23:00,39.6,22.5,30.47,NE,49,8.3,8.7,50,0.00,,---,0.00,VWS V14.01,2013-04-22 00:23:00,
2013-04-21 20:28:00,39.2,22.6,30.47,NE,54,5.8,6.7,51,0.00,,---,0.00,VWS V14.01,2013-04-22 00:28:00,
2013-04-21 20:32:00,38.8,22.3,30.47,ENE,59,4.0,6.7,51,0.00,,---,0.00,VWS V14.01,2013-04-22 00:32:00,
2013-04-21 20:37:00,38.7,22.6,30.47,ENE,58,5.8,5.8,52,0.00,,---,0.00,VWS V14.01,2013-04-22 00:37:00,
2013-04-21 20:42:00,38.3,22.7,30.47,NNE,27,5.4,6.7,53,0.00,,---,0.00,VWS V14.01,2013-04-22 00:42:00,
2013-04-21 20:47:00,38.1,22.5,30.50,NE,38,6.3,6.3,53,0.00,,---,0.00,VWS V14.01,2013-04-22 00:47:00,
2013-04-21 20:52:00,37.9,22.8,30.50,NE,39,4.0,5.8,54,0.00,,---,0.00,VWS V14.01,2013-04-22 00:52:00,
2013-04-21 20:57:00,37.9,22.8,30.50,NE,34,2.7,3.6,54,0.00,,---,0.00,VWS V14.01,2013-04-22 00:57:00,
2013-04-21 21:02:00,38.1,23.0,30.50,NE,38,4.0,4.5,54,0.00,,---,0.00,VWS V14.01,2013-04-22 01:02:00,
2013-04-21 21:07:00,38.1,23.0,30.50,ENE,59,4.0,4.5,54,0.00,,---,0.00,VWS V14.01,2013-04-22 01:07:00,
2013-04-21 21:12:00,38.1,23.0,30.50,NE,50,4.0,4.0,54,0.00,,---,0.00,VWS V14.01,2013-04-22 01:12:00,
2013-04-21 21:17:00,38.1,23.0,30.50,NE,48,4.5,4.9,54,0.00,,---,0.00,VWS V14.01,2013-04-22 01:17:00,
2013-04-21 21:22:00,37.8,23.1,30.50,NE,51,0.0,4.0,55,0.00,,---,0.00,VWS V14.01,2013-04-22 01:22:00,
2013-04-21 21:27:00,37.4,23.1,30.50,NNE,30,2.7,3.6,56,0.00,,---,0.00,VWS V14.01,2013-04-22 01:27:00,
2013-04-21 21:32:00,37.4,23.6,30.50,NNE,30,0.0,0.0,57,0.00,,---,0.00,VWS V14.01,2013-04-22 01:32:00,
2013-04-21 21:37:00,37.6,24.2,30.50,NNE,30,0.0,0.0,58,0.00,,---,0.00,VWS V14.01,2013-04-22 01:37:00,
2013-04-21 21:42:00,37.2,23.8,30.50,NNE,30,0.0,0.0,58,0.00,,---,0.00,VWS V14.01,2013-04-22 01:42:00,
2013-04-21 21:47:00,37.0,24.5,30.50,NNE,30,0.0,0.0,60,0.00,,---,0.00,VWS V14.01,2013-04-22 01:47:00,
2013-04-21 21:52:00,36.7,24.1,30.50,NNE,30,0.0,0.0,60,0.00,,---,0.00,VWS V14.01,2013-04-22 01:52:00,
2013-04-21 21:57:00,36.3,23.8,30.50,NNE,30,0.0,0.0,60,0.00,,---,0.00,VWS V14.01,2013-04-22 01:57:00,
2013-04-21 22:02:00,36.1,24.0,30.50,NNE,30,0.0,0.0,61,0.00,,---,0.00,VWS V14.01,2013-04-22 02:02:00,
2013-04-21 22:07:00,36.1,24.0,30.50,NNE,23,2.7,4.0,61,0.00,,---,0.00,VWS V14.01,2013-04-22 02:07:00,
2013-04-21 22:12:00,36.3,24.6,30.50,NNE,17,3.6,4.0,62,0.00,,---,0.00,VWS V14.01,2013-04-22 02:12:00,
2013-04-21 22:17:00,36.0,24.2,30.50,NNE,16,4.9,4.9,62,0.00,,---,0.00,VWS V14.01,2013-04-22 02:17:00,
2013-04-21 22:22:00,35.8,24.4,30.50,NNE,16,4.5,4.5,63,0.00,,---,0.00,VWS V14.01,2013-04-22 02:22:00,
2013-04-21 22:27:00,35.6,24.6,30.50,NNE,19,3.6,4.0,64,0.00,,---,0.00,VWS V14.01,2013-04-22 02:27:00,
2013-04-21 22:32:00,35.4,24.8,30.50,NNE,19,0.0,0.0,65,0.00,,---,0.00,VWS V14.01,2013-04-22 02:32:00,
2013-04-21 22:37:00,35.4,25.2,30.50,NNE,19,2.7,4.0,66,0.00,,---,0.00,VWS V14.01,2013-04-22 02:37:00,
2013-04-21 22:42:00,35.4,25.2,30.50,NNE,19,2.7,4.0,66,0.00,,---,0.00,VWS V14.01,2013-04-22 02:42:00,
2013-04-21 22:47:00,35.2,25.4,30.50,NNE,19,3.6,4.0,67,0.00,,---,0.00,VWS V14.01,2013-04-22 02:47:00,
2013-04-21 22:52:00,35.4,25.6,30.50,NNE,18,3.6,3.6,67,0.00,,---,0.00,VWS V14.01,2013-04-22 02:52:00,
2013-04-21 22:57:00,35.6,26.1,30.50,NNE,18,0.0,0.0,68,0.00,,---,0.00,VWS V14.01,2013-04-22 02:57:00,
2013-04-21 23:02:00,35.4,25.9,30.50,NNE,17,3.6,4.0,68,0.00,,---,0.00,VWS V14.01,2013-04-22 03:02:00,
2013-04-21 23:07:00,35.4,25.9,30.50,North,1,4.9,5.4,68,0.00,,---,0.00,VWS V14.01,2013-04-22 03:07:00,
2013-04-21 23:12:00,35.2,25.8,30.50,North,6,4.0,4.5,68,0.00,,---,0.00,VWS V14.01,2013-04-22 03:12:00,
2013-04-21 23:17:00,35.8,26.6,30.50,North,0,4.9,4.9,69,0.00,,---,0.00,VWS V14.01,2013-04-22 03:17:00,
2013-04-21 23:22:00,35.2,25.8,30.50,NNE,18,5.4,6.3,68,0.00,,---,0.00,VWS V14.01,2013-04-22 03:22:00,
2013-04-21 23:27:00,34.9,25.4,30.50,NNE,21,4.9,5.4,68,0.00,,---,0.00,VWS V14.01,2013-04-22 03:27:00,
2013-04-21 23:32:00,34.9,25.4,30.50,NNE,12,4.9,4.9,68,0.00,,---,0.00,VWS V14.01,2013-04-22 03:32:00,
2013-04-21 23:37:00,35.1,25.6,30.50,NNE,13,4.9,4.9,68,0.00,,---,0.00,VWS V14.01,2013-04-22 03:37:00,
2013-04-21 23:42:00,34.9,25.4,30.50,NNE,13,0.0,0.0,68,0.00,,---,0.00,VWS V14.01,2013-04-22 03:42:00,
2013-04-21 23:47:00,34.9,25.4,30.50,NNE,13,0.0,0.0,68,0.00,,---,0.00,VWS V14.01,2013-04-22 03:47:00,
2013-04-21 23:52:00,35.6,26.5,30.50,NNE,13,0.0,0.0,69,0.00,,---,0.00,VWS V14.01,2013-04-22 03:52:00,
2013-04-21 23:57:00,35.6,26.1,30.50,NNE,13,0.0,0.0,68,0.00,,---,0.00,VWS V14.01,2013-04-22 03:57:00,